| time (UTC) | temp F | wind direction | speed knots | gust knots | rain 1hr in | rain 24hr in | rain mn in | humidity % | barometer mb |
| 20260506123025 | 61 | 190 | 2.6 | 9.6 | 0.00 | 0.00 | 0.00 | 80 | 1009.4 |
| 20260506121525 | 61 | 230 | 2.6 | 9.6 | 0.00 | 0.00 | 0.00 | 80 | 1009.7 |
| 20260506120024 | 61 | 193 | 1.7 | 7.8 | 0.00 | 0.00 | 0.00 | 81 | 1009.8 |
| 20260506114538 | 60 | 204 | 2.6 | 8.7 | 0.00 | 0.00 | 0.00 | 83 | 1009.6 |
| 20260506113026 | 58 | 197 | 0.9 | 3.5 | 0.00 | 0.00 | 0.00 | 86 | 1009.5 |
| 20260506111529 | 58 | 161 | 0.9 | 4.3 | 0.00 | 0.00 | 0.00 | 86 | 1009.8 |
| 20260506110029 | 58 | 130 | 0.9 | 3.5 | 0.00 | 0.00 | 0.00 | 86 | 1009.7 |
| 20260506104527 | 58 | 178 | 0.9 | 4.3 | 0.00 | 0.00 | 0.00 | 85 | 1010.0 |
| 20260506103023 | 58 | 169 | 0.9 | 3.5 | 0.00 | 0.00 | 0.00 | 85 | 1009.7 |
| 20260506101542 | 58 | 193 | 0.0 | 4.3 | 0.00 | 0.00 | 0.00 | 85 | 1009.4 |
| 20260506100022 | 58 | 194 | 0.9 | 6.1 | 0.00 | 0.00 | 0.00 | 85 | 1009.6 |
| 20260506094521 | 58 | 208 | 1.7 | 4.3 | 0.00 | 0.00 | 0.00 | 86 | 1009.4 |
| 20260506093018 | 57 | 205 | 1.7 | 6.1 | 0.00 | 0.00 | 0.00 | 89 | 1009.5 |
| 20260506091519 | 56 | 204 | 0.0 | 2.6 | 0.00 | 0.00 | 0.00 | 87 | 1009.5 |
| 20260506090029 | 56 | 73 | 0.0 | 0.0 | 0.00 | 0.00 | 0.00 | 86 | 1009.6 |
| 20260506084529 | 56 | 194 | 0.0 | 0.0 | 0.00 | 0.00 | 0.00 | 86 | 1009.8 |
| 20260506083026 | 56 | 171 | 0.0 | 1.7 | 0.00 | 0.00 | 0.00 | 85 | 1009.8 |
| 20260506081521 | 57 | 117 | 0.0 | 1.7 | 0.00 | 0.00 | 0.00 | 84 | 1009.8 |
| 20260506073012 | 57 | 194 | 0.0 | 1.7 | 0.00 | 0.00 | 0.00 | 82 | 1009.9 |
| 20260506071528 | 58 | 70 | 0.0 | 1.7 | 0.00 | 0.00 | 0.00 | 81 | 1010.0 |
| 20260506061520 | 60 | 195 | 0.0 | 0.9 | 0.00 | 0.00 | 0.00 | 75 | 1009.9 |
| 20260506044527 | 63 | 185 | 0.9 | 6.1 | 0.00 | 0.00 | 0.00 | 68 | 1010.5 |
| 20260506043025 | 64 | 197 | 1.7 | 4.3 | 0.00 | 0.00 | 0.00 | 67 | 1010.4 |
| 20260506041527 | 64 | 191 | 0.9 | 6.1 | 0.00 | 0.00 | 0.00 | 65 | 1010.5 |
| 20260506040029 | 65 | 169 | 1.7 | 10.4 | 0.00 | 0.00 | 0.00 | 65 | 1010.4 |
| 20260506034526 | 65 | 226 | 3.5 | 6.1 | 0.00 | 0.00 | 0.00 | 64 | 1010.4 |
| 20260506033031 | 66 | 193 | 2.6 | 9.6 | 0.00 | 0.00 | 0.00 | 63 | 1010.3 |
| 20260506031528 | 66 | 200 | 1.7 | 9.6 | 0.00 | 0.00 | 0.00 | 63 | 1010.2 |
| 20260506030007 | 66 | 204 | 2.6 | 8.7 | 0.00 | 0.00 | 0.00 | 62 | 1010.2 |
| 20260506024512 | 66 | 208 | 2.6 | 8.7 | 0.00 | 0.00 | 0.00 | 62 | 1010.1 |
| 20260506023013 | 66 | 214 | 3.5 | 10.4 | 0.00 | 0.00 | 0.00 | 62 | 1010.1 |
| 20260506021513 | 66 | 212 | 2.6 | 10.4 | 0.00 | 0.00 | 0.00 | 61 | 1010.1 |
| 20260506020015 | 66 | 176 | 2.6 | 11.3 | 0.00 | 0.00 | 0.00 | 61 | 1010.0 |
| 20260506014517 | 67 | 213 | 5.2 | 9.6 | 0.00 | 0.00 | 0.00 | 60 | 1010.0 |
| 20260506013022 | 67 | 222 | 1.7 | 10.4 | 0.00 | 0.00 | 0.00 | 60 | 1009.8 |
| 20260506011512 | 67 | 199 | 1.7 | 7.8 | 0.00 | 0.00 | 0.00 | 59 | 1009.6 |
| 20260506010015 | 68 | 202 | 0.9 | 5.2 | 0.00 | 0.00 | 0.00 | 57 | 1009.5 |
| 20260506004523 | 68 | 235 | 1.7 | 4.3 | 0.00 | 0.00 | 0.00 | 56 | 1009.4 |
| 20260506003012 | 68 | 225 | 2.6 | 7.0 | 0.00 | 0.00 | 0.00 | 57 | 1009.3 |
| 20260506001516 | 68 | 200 | 1.7 | 6.1 | 0.00 | 0.00 | 0.00 | 57 | 1009.0 |
| 20260506000018 | 69 | 238 | 0.9 | 5.2 | 0.00 | 0.00 | 0.00 | 57 | 1008.9 |
| 20260505234512 | 69 | 190 | 0.9 | 7.8 | 0.00 | 0.00 | 0.00 | 58 | 1008.7 |
| 20260505233015 | 69 | 284 | 2.6 | 6.1 | 0.00 | 0.00 | 0.00 | 57 | 1008.5 |
| 20260505231515 | 70 | 189 | 1.7 | 7.8 | 0.00 | 0.00 | 0.00 | 57 | 1008.3 |
| 20260505230017 | 70 | 196 | 0.9 | 7.8 | 0.00 | 0.00 | 0.00 | 55 | 1008.1 |
| 20260505224514 | 71 | 203 | 4.3 | 7.8 | 0.00 | 0.00 | 0.00 | 54 | 1008.0 |
| 20260505223013 | 72 | 228 | 3.5 | 7.8 | 0.00 | 0.00 | 0.00 | 55 | 1007.8 |
| 20260505221512 | 72 | 195 | 3.5 | 10.4 | 0.00 | 0.00 | 0.00 | 54 | 1007.9 |
| 20260505220022 | 73 | 194 | 4.3 | 11.3 | 0.00 | 0.00 | 0.00 | 53 | 1008.0 |
| 20260505214529 | 74 | 183 | 4.3 | 10.4 | 0.00 | 0.00 | 0.00 | 52 | 1007.9 |
| 20260505213021 | 74 | 194 | 0.9 | 11.3 | 0.00 | 0.00 | 0.00 | 51 | 1007.6 |
| 20260505211514 | 75 | 183 | 4.3 | 10.4 | 0.00 | 0.00 | 0.00 | 50 | 1007.5 |
| 20260505210018 | 76 | 194 | 4.3 | 9.6 | 0.00 | 0.00 | 0.00 | 52 | 1007.3 |
| 20260505204525 | 76 | 201 | 1.7 | 8.7 | 0.00 | 0.00 | 0.00 | 51 | 1007.5 |
| 20260505203009 | 76 | 198 | 7.0 | 18.2 | 0.00 | 0.00 | 0.00 | 50 | 1007.7 |
| 20260505201518 | 76 | 249 | 7.8 | 19.1 | 0.00 | 0.00 | 0.00 | 47 | 1007.7 |
| 20260505200018 | 77 | 244 | 3.5 | 15.6 | 0.00 | 0.00 | 0.00 | 48 | 1007.8 |
| 20260505194520 | 77 | 174 | 4.3 | 18.2 | 0.00 | 0.00 | 0.00 | 48 | 1008.0 |
| 20260505193035 | 77 | 159 | 4.3 | 19.1 | 0.00 | 0.00 | 0.00 | 47 | 1008.0 |
| 20260505191519 | 78 | 115 | 7.0 | 14.8 | 0.00 | 0.00 | 0.00 | 46 | 1007.9 |
| 20260505190028 | 78 | 209 | 4.3 | 12.2 | 0.00 | 0.00 | 0.00 | 50 | 1008.3 |
| 20260505184515 | 78 | 209 | 4.3 | 12.2 | 0.00 | 0.00 | 0.00 | 47 | 1008.5 |
| 20260505183027 | 77 | 249 | 3.5 | 13.0 | 0.00 | 0.00 | 0.00 | 49 | 1008.7 |
| 20260505181521 | 77 | 168 | 4.3 | 14.8 | 0.00 | 0.00 | 0.00 | 46 | 1008.7 |
| 20260505180031 | 78 | 186 | 3.5 | 12.2 | 0.00 | 0.00 | 0.00 | 48 | 1008.7 |
| 20260505174528 | 78 | 170 | 1.7 | 10.4 | 0.00 | 0.00 | 0.00 | 49 | 1008.7 |
| 20260505173028 | 78 | 205 | 3.5 | 12.2 | 0.00 | 0.00 | 0.00 | 49 | 1008.8 |
| 20260505171528 | 78 | 262 | 4.3 | 14.8 | 0.00 | 0.00 | 0.00 | 45 | 1008.9 |
| 20260505170021 | 77 | 253 | 1.7 | 12.2 | 0.00 | 0.00 | 0.00 | 48 | 1009.0 |
| 20260505164531 | 77 | 239 | 2.6 | 10.4 | 0.00 | 0.00 | 0.00 | 48 | 1009.3 |
| 20260505163023 | 77 | 218 | 1.7 | 13.9 | 0.00 | 0.00 | 0.00 | 49 | 1009.4 |
| 20260505161520 | 76 | 228 | 4.3 | 14.8 | 0.00 | 0.00 | 0.00 | 50 | 1009.9 |
| 20260505153025 | 74 | 202 | 6.1 | 11.3 | 0.00 | 0.00 | 0.00 | 51 | 1010.1 |
| 20260505151520 | 73 | 204 | 4.3 | 13.0 | 0.00 | 0.00 | 0.00 | 54 | 1010.2 |
| 20260505124508 | 57 | 284 | 0.0 | 0.0 | 0.00 | 0.00 | 0.00 | 83 | 1009.9 |